createdAt,value
2019-05-16T00:00:40.309Z,9.61
2019-05-16T00:01:38.688Z,9.60
2019-05-16T00:02:38.545Z,9.58
2019-05-16T00:03:38.623Z,9.57
2019-05-16T00:04:38.609Z,9.55
2019-05-16T00:05:50.475Z,9.53
2019-05-16T00:06:39.196Z,9.51
2019-05-16T00:07:39.147Z,9.50
2019-05-16T00:08:38.910Z,9.49
2019-05-16T00:09:38.526Z,9.49
2019-05-16T00:10:38.553Z,9.47
2019-05-16T00:11:38.648Z,9.46
2019-05-16T00:12:39.980Z,9.44
2019-05-16T00:13:38.604Z,9.44
2019-05-16T00:14:38.771Z,9.43
2019-05-16T00:15:38.618Z,9.40
2019-05-16T00:16:38.618Z,9.39
2019-05-16T00:17:38.945Z,9.38
2019-05-16T00:18:38.939Z,9.38
2019-05-16T00:19:38.605Z,9.38
2019-05-16T00:20:38.751Z,9.40
2019-05-16T00:21:38.588Z,9.40
2019-05-16T00:22:39.346Z,9.42
2019-05-16T00:23:38.544Z,9.39
2019-05-16T00:24:38.599Z,9.39
2019-05-16T00:25:38.722Z,9.38
2019-05-16T00:26:39.023Z,9.32
2019-05-16T00:27:38.872Z,9.31
2019-05-16T00:28:38.525Z,9.30
2019-05-16T00:29:38.597Z,9.25
2019-05-16T00:30:39.111Z,9.20
2019-05-16T00:31:38.597Z,9.16
2019-05-16T00:32:39.199Z,9.13
2019-05-16T00:33:38.527Z,9.11
2019-05-16T00:34:38.656Z,9.08
2019-05-16T00:35:38.961Z,9.08
2019-05-16T00:36:38.536Z,9.05
2019-05-16T00:37:39.309Z,9.04
2019-05-16T00:38:38.624Z,9.02
2019-05-16T00:39:38.912Z,9.01
2019-05-16T00:40:38.629Z,8.98
2019-05-16T00:41:38.713Z,8.97
2019-05-16T00:42:39.239Z,8.97
2019-05-16T00:43:38.630Z,9.02
2019-05-16T00:44:38.844Z,9.09
2019-05-16T00:45:38.699Z,9.13
2019-05-16T00:46:38.797Z,9.16
2019-05-16T00:47:39.172Z,9.16
2019-05-16T00:48:38.606Z,9.16
2019-05-16T00:49:38.724Z,9.16
2019-05-16T00:50:38.840Z,9.16
2019-05-16T00:51:38.572Z,9.16
2019-05-16T00:52:39.491Z,9.16
2019-05-16T00:53:38.547Z,9.16
2019-05-16T00:54:38.552Z,9.19
2019-05-16T00:55:38.906Z,9.25
2019-05-16T00:56:38.549Z,9.30
2019-05-16T00:57:39.123Z,9.30
2019-05-16T00:58:38.573Z,9.28
2019-05-16T00:59:38.639Z,9.31
2019-05-16T01:00:38.580Z,9.34
2019-05-16T01:01:39.053Z,9.34
2019-05-16T01:02:38.639Z,9.34
2019-05-16T01:03:38.633Z,9.32
2019-05-16T01:04:38.641Z,9.32
2019-05-16T01:05:38.944Z,9.32
2019-05-16T01:06:38.576Z,9.31
2019-05-16T01:07:39.092Z,9.32
2019-05-16T01:08:38.700Z,9.34
2019-05-16T01:09:38.759Z,9.34
2019-05-16T01:10:39.088Z,9.34
2019-05-16T01:11:38.587Z,9.32
2019-05-16T01:12:39.201Z,9.31
2019-05-16T01:13:38.570Z,9.30
2019-05-16T01:14:38.642Z,9.30
2019-05-16T01:15:38.637Z,9.28
2019-05-16T01:16:38.650Z,9.28
2019-05-16T01:17:39.212Z,9.28
2019-05-16T01:18:38.653Z,9.28
2019-05-16T01:19:38.653Z,9.25
2019-05-16T01:20:38.780Z,9.25
2019-05-16T01:21:39.239Z,9.23
2019-05-16T01:22:38.757Z,9.20
2019-05-16T01:23:38.936Z,9.19
2019-05-16T01:24:41.480Z,9.16
2019-05-16T01:25:38.887Z,9.15
2019-05-16T01:26:39.188Z,9.16
2019-05-16T01:27:38.884Z,9.18
2019-05-16T01:28:38.538Z,9.19
2019-05-16T01:29:38.665Z,9.18
2019-05-16T01:30:38.717Z,9.19
2019-05-16T01:31:38.666Z,9.20
2019-05-16T01:32:39.462Z,9.23
2019-05-16T01:33:38.715Z,9.23
2019-05-16T01:34:38.583Z,9.27
2019-05-16T01:35:39.550Z,9.28
2019-05-16T01:36:40.768Z,9.27
2019-05-16T01:37:38.646Z,9.27
2019-05-16T01:38:39.105Z,9.25
2019-05-16T01:39:38.591Z,9.23
2019-05-16T01:40:38.904Z,9.23
2019-05-16T01:41:38.672Z,9.22
2019-05-16T01:42:38.868Z,9.22
2019-05-16T01:43:38.695Z,9.22
2019-05-16T01:44:38.603Z,9.19
2019-05-16T01:45:38.651Z,9.15
2019-05-16T01:46:39.207Z,9.15
2019-05-16T01:47:39.336Z,9.12
2019-05-16T01:48:38.679Z,9.12
2019-05-16T01:49:38.684Z,9.11
2019-05-16T01:50:38.963Z,9.12
2019-05-16T01:51:38.676Z,9.12
2019-05-16T01:52:38.673Z,9.12
2019-05-16T01:53:39.473Z,9.15
2019-05-16T01:54:38.960Z,9.13
2019-05-16T01:55:38.602Z,9.15
2019-05-16T01:56:38.909Z,9.16
2019-05-16T01:57:39.287Z,9.18
2019-05-16T01:58:38.618Z,9.16
2019-05-16T01:59:38.690Z,9.15
2019-05-16T02:00:49.745Z,9.12
2019-05-16T02:01:38.576Z,9.12
2019-05-16T02:02:38.794Z,9.12
2019-05-16T02:03:38.864Z,9.11
2019-05-16T02:04:38.625Z,9.11
2019-05-16T02:05:38.913Z,9.11
2019-05-16T02:06:50.796Z,9.07
2019-05-16T02:07:39.018Z,9.05
2019-05-16T02:08:38.608Z,9.05
2019-05-16T02:09:38.620Z,9.02
2019-05-16T02:10:38.694Z,9.01
2019-05-16T02:11:38.888Z,9.01
2019-05-16T02:12:38.717Z,9.00
2019-05-16T02:13:39.198Z,8.98
2019-05-16T02:14:38.901Z,8.97
2019-05-16T02:15:38.693Z,8.96
2019-05-16T02:16:38.685Z,8.98
2019-05-16T02:17:38.741Z,8.98
2019-05-16T02:18:38.690Z,8.97
2019-05-16T02:19:38.693Z,8.96
2019-05-16T02:20:39.244Z,8.94
2019-05-16T02:21:38.984Z,8.93
2019-05-16T02:22:39.157Z,8.91
2019-05-16T02:23:38.620Z,8.89
2019-05-16T02:24:38.980Z,8.87
2019-05-16T02:25:40.791Z,8.87
2019-05-16T02:26:38.789Z,8.86
2019-05-16T02:27:41.006Z,8.83
2019-05-16T02:28:40.766Z,8.80
2019-05-16T02:29:40.105Z,8.80
2019-05-16T02:30:41.955Z,8.76
2019-05-16T02:31:41.796Z,8.74
2019-05-16T02:32:41.576Z,8.74
2019-05-16T02:33:40.567Z,8.71
2019-05-16T02:34:41.391Z,8.69
2019-05-16T02:35:40.568Z,8.69
2019-05-16T02:36:40.499Z,8.71
2019-05-16T02:37:41.734Z,8.69
2019-05-16T02:38:42.023Z,8.68
2019-05-16T02:39:40.980Z,8.64
2019-05-16T02:40:41.545Z,8.65
2019-05-16T02:41:42.605Z,8.62
2019-05-16T02:42:42.087Z,8.62
2019-05-16T02:43:41.728Z,8.60
2019-05-16T02:44:41.220Z,8.60
2019-05-16T02:45:41.590Z,8.58
2019-05-16T02:46:41.830Z,8.57
2019-05-16T02:47:42.026Z,8.54
2019-05-16T02:48:41.006Z,8.53
2019-05-16T02:49:41.935Z,8.50
2019-05-16T02:50:41.277Z,8.49
2019-05-16T02:51:40.598Z,8.45
2019-05-16T02:52:41.386Z,8.46
2019-05-16T02:53:41.459Z,8.47
2019-05-16T02:54:41.197Z,8.47
2019-05-16T02:55:41.075Z,8.47
2019-05-16T02:56:41.449Z,8.47
2019-05-16T02:57:41.430Z,8.45
2019-05-16T02:58:41.355Z,8.45
2019-05-16T02:59:41.615Z,8.45
2019-05-16T03:00:42.670Z,8.45
2019-05-16T03:01:40.887Z,8.43
2019-05-16T03:02:41.722Z,8.39
2019-05-16T03:03:40.253Z,8.38
2019-05-16T03:04:40.990Z,8.35
2019-05-16T03:05:41.620Z,8.34
2019-05-16T03:06:41.038Z,8.31
2019-05-16T03:07:43.362Z,8.28
2019-05-16T03:08:41.137Z,8.27
2019-05-16T03:09:41.052Z,8.27
2019-05-16T03:10:41.284Z,8.24
2019-05-16T03:11:41.674Z,8.27
2019-05-16T03:12:41.185Z,8.27
2019-05-16T03:13:38.646Z,8.28
2019-05-16T03:14:41.690Z,8.28
2019-05-16T03:15:40.788Z,8.30
2019-05-16T03:16:41.536Z,8.31
2019-05-16T03:17:40.314Z,8.33
2019-05-16T03:18:41.382Z,8.37
2019-05-16T03:19:41.521Z,8.38
2019-05-16T03:20:40.848Z,8.42
2019-05-16T03:21:41.297Z,8.43
2019-05-16T03:22:41.005Z,8.43
2019-05-16T03:23:41.852Z,8.43
2019-05-16T03:24:41.767Z,8.45
2019-05-16T03:25:41.553Z,8.45
2019-05-16T03:26:40.866Z,8.45
2019-05-16T03:27:41.281Z,8.43
2019-05-16T03:28:41.254Z,8.45
2019-05-16T03:29:41.605Z,8.46
2019-05-16T03:30:44.727Z,8.45
2019-05-16T03:31:44.653Z,8.46
2019-05-16T03:32:43.942Z,8.47
2019-05-16T03:33:47.469Z,8.46
2019-05-16T03:34:43.383Z,8.47
2019-05-16T03:35:43.961Z,8.47
2019-05-16T03:36:43.372Z,8.46
2019-05-16T03:37:54.355Z,8.46
2019-05-16T03:38:41.199Z,8.46
2019-05-16T03:39:40.692Z,8.47
2019-05-16T03:40:41.243Z,8.46
2019-05-16T03:41:41.346Z,8.46
2019-05-16T03:42:41.585Z,8.47
2019-05-16T03:43:41.213Z,8.46
2019-05-16T03:44:41.118Z,8.45
2019-05-16T03:45:41.761Z,8.45
2019-05-16T03:46:41.325Z,8.42
2019-05-16T03:47:42.284Z,8.45
2019-05-16T03:48:40.815Z,8.39
2019-05-16T03:49:41.985Z,8.39
2019-05-16T03:50:41.216Z,8.39
2019-05-16T03:51:41.234Z,8.38
2019-05-16T03:52:42.908Z,8.37
2019-05-16T03:53:40.349Z,8.37
2019-05-16T03:54:41.764Z,8.35
2019-05-16T03:55:40.747Z,8.37
2019-05-16T03:56:40.841Z,8.35
2019-05-16T03:57:41.506Z,8.34
2019-05-16T03:58:41.507Z,8.34
2019-05-16T03:59:40.840Z,8.33
2019-05-16T04:00:45.325Z,8.33
2019-05-16T04:01:40.966Z,8.31
2019-05-16T04:02:41.934Z,8.28
2019-05-16T04:03:41.186Z,8.28
2019-05-16T04:04:41.495Z,8.26
2019-05-16T04:05:41.337Z,8.24
2019-05-16T04:06:41.653Z,8.24
2019-05-16T04:07:41.400Z,8.23
2019-05-16T04:08:41.238Z,8.20
2019-05-16T04:09:41.264Z,8.22
2019-05-16T04:10:40.941Z,8.19
2019-05-16T04:11:42.152Z,8.20
2019-05-16T04:12:41.918Z,8.19
2019-05-16T04:13:41.197Z,8.19
2019-05-16T04:14:40.964Z,8.20
2019-05-16T04:15:40.763Z,8.20
2019-05-16T04:16:41.419Z,8.20
2019-05-16T04:17:41.171Z,8.20
2019-05-16T04:18:41.743Z,8.20
2019-05-16T04:19:41.360Z,8.19
2019-05-16T04:20:40.611Z,8.20
2019-05-16T04:21:41.775Z,8.22
2019-05-16T04:22:40.814Z,8.22
2019-05-16T04:23:41.698Z,8.22
2019-05-16T04:24:41.577Z,8.22
2019-05-16T04:25:41.039Z,8.23
2019-05-16T04:26:41.139Z,8.22
2019-05-16T04:27:41.737Z,8.23
2019-05-16T04:28:41.280Z,8.23
2019-05-16T04:29:40.764Z,8.24
2019-05-16T04:30:41.545Z,8.23
2019-05-16T04:31:41.253Z,8.23
2019-05-16T04:32:41.474Z,8.24
2019-05-16T04:33:41.509Z,8.24
2019-05-16T04:34:41.583Z,8.27
2019-05-16T04:35:41.175Z,8.26
2019-05-16T04:36:40.664Z,8.26
2019-05-16T04:37:42.254Z,8.26
2019-05-16T04:38:45.032Z,8.26
2019-05-16T04:39:41.431Z,8.27
2019-05-16T04:40:42.181Z,8.27
2019-05-16T04:41:40.923Z,8.28
2019-05-16T04:42:41.482Z,8.27
2019-05-16T04:43:41.353Z,8.28
2019-05-16T04:44:41.697Z,8.30
2019-05-16T04:45:41.399Z,8.28
2019-05-16T04:46:41.046Z,8.30
2019-05-16T04:47:41.353Z,8.30
2019-05-16T04:48:41.682Z,8.30
2019-05-16T04:49:41.206Z,8.31
2019-05-16T04:50:41.783Z,8.31
2019-05-16T04:51:41.487Z,8.31
2019-05-16T04:52:41.396Z,8.34
2019-05-16T04:53:42.108Z,8.34
2019-05-16T04:54:41.903Z,8.35
2019-05-16T04:55:41.819Z,8.35
2019-05-16T04:56:41.311Z,8.35
2019-05-16T04:57:42.322Z,8.37
2019-05-16T04:58:40.757Z,8.38
2019-05-16T04:59:41.615Z,8.38
2019-05-16T05:00:41.846Z,8.38
2019-05-16T05:01:41.265Z,8.39
2019-05-16T05:02:41.843Z,8.42
2019-05-16T05:03:41.007Z,8.42
2019-05-16T05:04:41.339Z,8.45
2019-05-16T05:05:41.420Z,8.49
2019-05-16T05:06:40.549Z,8.51
2019-05-16T05:07:40.637Z,8.51
2019-05-16T05:08:52.954Z,8.56
2019-05-16T05:09:40.884Z,8.57
2019-05-16T05:10:40.647Z,8.58
2019-05-16T05:11:41.232Z,8.58
2019-05-16T05:12:40.868Z,8.62
2019-05-16T05:13:41.206Z,8.64
2019-05-16T05:14:41.468Z,8.65
2019-05-16T05:15:40.074Z,8.65
2019-05-16T05:16:41.096Z,8.67
2019-05-16T05:17:41.263Z,8.67
2019-05-16T05:18:40.953Z,8.68
2019-05-16T05:19:41.450Z,8.71
2019-05-16T05:20:40.993Z,8.74
2019-05-16T05:21:40.961Z,8.72
2019-05-16T05:22:39.745Z,8.74
2019-05-16T05:23:40.674Z,8.75
2019-05-16T05:24:40.614Z,8.79
2019-05-16T05:25:40.397Z,8.78
2019-05-16T05:26:41.137Z,8.75
2019-05-16T05:27:40.969Z,8.72
2019-05-16T05:28:40.169Z,8.74
2019-05-16T05:29:39.821Z,8.74
2019-05-16T05:30:40.717Z,8.75
2019-05-16T05:31:44.609Z,8.76
2019-05-16T05:32:41.061Z,8.76
2019-05-16T05:33:41.582Z,8.74
2019-05-16T05:34:39.866Z,8.75
2019-05-16T05:35:40.839Z,8.74
2019-05-16T05:36:40.893Z,8.71
2019-05-16T05:37:40.949Z,8.71
2019-05-16T05:38:40.280Z,8.65
2019-05-16T05:39:39.727Z,8.62
2019-05-16T05:40:40.456Z,8.64
2019-05-16T05:41:40.127Z,8.67
2019-05-16T05:42:39.910Z,8.65
2019-05-16T05:43:39.735Z,8.64
2019-05-16T05:44:40.146Z,8.67
2019-05-16T05:45:40.151Z,8.68
2019-05-16T05:46:40.064Z,8.69
2019-05-16T05:47:40.212Z,8.69
2019-05-16T05:48:40.964Z,8.72
2019-05-16T05:49:40.469Z,8.75
2019-05-16T05:50:40.147Z,8.76
2019-05-16T05:51:40.673Z,8.71
2019-05-16T05:52:41.213Z,8.72
2019-05-16T05:53:40.168Z,8.68
2019-05-16T05:54:40.727Z,8.68
2019-05-16T05:55:40.462Z,8.68
2019-05-16T05:56:39.789Z,8.69
2019-05-16T05:57:40.373Z,8.71
2019-05-16T05:58:40.759Z,8.69
2019-05-16T05:59:40.446Z,8.74
2019-05-16T06:00:40.517Z,8.78
2019-05-16T06:01:40.712Z,8.80
2019-05-16T06:02:40.271Z,8.82
2019-05-16T06:03:39.905Z,8.80
2019-05-16T06:04:39.545Z,8.80
2019-05-16T06:05:41.103Z,8.79
2019-05-16T06:06:42.805Z,8.80
2019-05-16T06:07:40.553Z,8.78
2019-05-16T06:08:40.952Z,8.78
2019-05-16T06:09:50.484Z,8.79
2019-05-16T06:10:40.567Z,8.79
2019-05-16T06:11:40.622Z,8.80
2019-05-16T06:12:40.832Z,8.78
2019-05-16T06:13:40.448Z,8.76
2019-05-16T06:14:41.813Z,8.79
2019-05-16T06:15:40.016Z,8.79
2019-05-16T06:16:40.276Z,8.80
2019-05-16T06:17:40.167Z,8.83
2019-05-16T06:18:39.671Z,8.90
2019-05-16T06:19:40.217Z,8.93
2019-05-16T06:20:40.081Z,8.96
2019-05-16T06:21:44.609Z,8.96
2019-05-16T06:22:40.311Z,9.01
2019-05-16T06:23:40.282Z,9.07
2019-05-16T06:24:39.935Z,9.11
2019-05-16T06:25:40.523Z,9.15
2019-05-16T06:26:39.775Z,9.12
2019-05-16T06:27:40.606Z,9.16
2019-05-16T06:28:41.249Z,9.20
2019-05-16T06:29:40.271Z,9.28
2019-05-16T06:30:40.736Z,9.42
2019-05-16T06:31:40.663Z,9.54
2019-05-16T06:32:39.540Z,9.65
2019-05-16T06:33:41.115Z,9.76
2019-05-16T06:34:40.403Z,9.83
2019-05-16T06:35:40.205Z,9.89
2019-05-16T06:36:40.087Z,9.93
2019-05-16T06:37:40.547Z,9.94
2019-05-16T06:38:40.526Z,10.00
2019-05-16T06:39:42.759Z,10.08
2019-05-16T06:40:40.228Z,10.17
2019-05-16T06:41:39.724Z,10.17
2019-05-16T06:42:40.290Z,10.13
2019-05-16T06:43:40.021Z,10.14
2019-05-16T06:44:40.148Z,10.18
2019-05-16T06:45:40.177Z,10.24
2019-05-16T06:46:54.343Z,10.25
2019-05-16T06:47:39.668Z,10.32
2019-05-16T06:48:39.866Z,10.38
2019-05-16T06:49:40.281Z,10.39
2019-05-16T06:50:40.199Z,10.34
2019-05-16T06:51:39.788Z,10.30
2019-05-16T06:52:40.822Z,10.32
2019-05-16T06:53:40.459Z,10.35
2019-05-16T06:54:40.719Z,10.35
2019-05-16T06:55:40.144Z,10.39
2019-05-16T06:56:40.053Z,10.41
2019-05-16T06:57:40.827Z,10.35
2019-05-16T06:58:47.567Z,10.39
2019-05-16T06:59:40.477Z,10.30
2019-05-16T07:00:40.577Z,10.25
2019-05-16T07:01:40.415Z,10.21
2019-05-16T07:02:40.838Z,10.17
2019-05-16T07:03:40.101Z,10.16
2019-05-16T07:04:39.836Z,10.17
2019-05-16T07:05:40.615Z,10.21
2019-05-16T07:06:54.785Z,10.28
2019-05-16T07:07:40.457Z,10.27
2019-05-16T07:08:40.307Z,10.18
2019-05-16T07:09:41.787Z,10.14
2019-05-16T07:10:39.753Z,10.14
2019-05-16T07:11:39.803Z,10.11
2019-05-16T07:12:41.358Z,10.06
2019-05-16T07:13:40.646Z,10.02
2019-05-16T07:14:40.580Z,9.90
2019-05-16T07:15:40.192Z,9.82
2019-05-16T07:16:40.483Z,9.75
2019-05-16T07:17:39.801Z,9.69
2019-05-16T07:18:40.227Z,9.72
2019-05-16T07:19:40.783Z,9.73
2019-05-16T07:20:40.008Z,9.72
2019-05-16T07:21:39.701Z,9.71
2019-05-16T07:22:40.624Z,9.66
2019-05-16T07:23:40.442Z,9.68
2019-05-16T07:24:39.977Z,9.64
2019-05-16T07:25:40.726Z,9.61
2019-05-16T07:26:40.518Z,9.60
2019-05-16T07:27:40.102Z,9.62
2019-05-16T07:28:40.587Z,9.62
2019-05-16T07:29:40.158Z,9.60
2019-05-16T07:30:40.820Z,9.57
2019-05-16T07:31:40.601Z,9.55
2019-05-16T07:32:40.412Z,9.57
2019-05-16T07:33:40.722Z,9.58
2019-05-16T07:34:40.373Z,9.58
2019-05-16T07:35:40.156Z,9.60
2019-05-16T07:36:40.541Z,9.60
2019-05-16T07:37:40.017Z,9.62
2019-05-16T07:38:40.095Z,9.66
2019-05-16T07:39:41.887Z,9.64
2019-05-16T07:40:40.048Z,9.64
2019-05-16T07:41:40.157Z,9.66
2019-05-16T07:42:40.292Z,9.68
2019-05-16T07:43:40.069Z,9.73
2019-05-16T07:44:40.797Z,9.72
2019-05-16T07:45:40.630Z,9.69
2019-05-16T07:46:40.847Z,9.68
2019-05-16T07:47:40.248Z,9.65
2019-05-16T07:48:40.375Z,9.64
2019-05-16T07:49:40.675Z,9.60
2019-05-16T07:50:40.491Z,9.62
2019-05-16T07:51:40.253Z,9.65
2019-05-16T07:52:40.274Z,9.69
2019-05-16T07:53:40.238Z,9.71
2019-05-16T07:54:40.491Z,9.69
2019-05-16T07:55:40.047Z,9.69
2019-05-16T07:56:40.725Z,9.69
2019-05-16T07:57:39.843Z,9.62
2019-05-16T07:58:40.944Z,9.62
2019-05-16T07:59:40.505Z,9.62
2019-05-16T08:00:49.801Z,9.64
2019-05-16T08:01:39.865Z,9.65
2019-05-16T08:02:40.357Z,9.66
2019-05-16T08:03:43.664Z,9.66
2019-05-16T08:04:40.589Z,9.75
2019-05-16T08:05:41.250Z,9.73
2019-05-16T08:06:40.840Z,9.80
2019-05-16T08:07:40.765Z,9.89
2019-05-16T08:08:40.362Z,9.93
2019-05-16T08:09:39.756Z,9.93
2019-05-16T08:10:45.563Z,9.94
2019-05-16T08:11:40.839Z,9.94
2019-05-16T08:12:40.730Z,9.97
2019-05-16T08:13:39.990Z,10.04
2019-05-16T08:14:40.946Z,10.05
2019-05-16T08:15:40.704Z,10.05
2019-05-16T08:16:40.795Z,10.08
2019-05-16T08:17:41.450Z,10.05
2019-05-16T08:18:41.670Z,9.98
2019-05-16T08:19:39.972Z,9.94
2019-05-16T08:20:41.329Z,9.97
2019-05-16T08:21:41.074Z,9.86
2019-05-16T08:22:41.283Z,9.80
2019-05-16T08:23:41.209Z,9.80
2019-05-16T08:24:40.196Z,9.71
2019-05-16T08:25:41.210Z,9.68
2019-05-16T08:26:42.561Z,9.69
2019-05-16T08:27:41.265Z,9.71
2019-05-16T08:28:41.304Z,9.71
2019-05-16T08:29:40.405Z,9.71
2019-05-16T08:30:41.196Z,9.75
2019-05-16T08:31:42.365Z,9.72
2019-05-16T08:32:42.184Z,9.72
2019-05-16T08:33:41.496Z,9.71
2019-05-16T08:34:40.881Z,9.71
2019-05-16T08:35:41.376Z,9.66
2019-05-16T08:36:41.111Z,9.68
2019-05-16T08:38:43.025Z,9.72
2019-05-16T08:39:41.373Z,9.69
2019-05-16T08:41:01.096Z,9.71
2019-05-16T08:41:42.141Z,9.76
2019-05-16T08:42:41.608Z,9.73
2019-05-16T08:43:41.382Z,9.73
2019-05-16T08:44:41.760Z,9.69
2019-05-16T08:45:41.767Z,9.66
2019-05-16T08:46:42.402Z,9.64
2019-05-16T08:47:41.820Z,9.68
2019-05-16T08:48:42.022Z,9.71
2019-05-16T08:49:41.911Z,9.73
2019-05-16T08:50:42.042Z,9.73
2019-05-16T08:51:42.395Z,9.76
2019-05-16T08:52:43.031Z,9.79
2019-05-16T08:53:43.320Z,9.83
2019-05-16T08:54:42.991Z,9.82
2019-05-16T08:55:43.009Z,9.82
2019-05-16T08:56:43.797Z,9.83
2019-05-16T08:57:40.939Z,9.78
2019-05-16T08:58:41.101Z,9.71
2019-05-16T08:59:41.118Z,9.68
2019-05-16T09:00:41.865Z,9.72
2019-05-16T09:01:48.294Z,9.75
2019-05-16T09:02:42.210Z,9.76
2019-05-16T09:03:41.556Z,9.82
2019-05-16T09:04:43.695Z,9.82
2019-05-16T09:05:42.636Z,9.84
2019-05-16T09:06:42.454Z,9.84
2019-05-16T09:07:38.897Z,9.84
2019-05-16T09:08:38.918Z,9.84
2019-05-16T09:09:44.448Z,9.83
2019-05-16T09:10:59.830Z,9.73
2019-05-16T09:11:44.667Z,9.65
2019-05-16T09:12:38.990Z,9.55
2019-05-16T09:13:38.998Z,9.49
2019-05-16T09:14:39.272Z,9.44
2019-05-16T09:15:39.156Z,9.44
2019-05-16T09:16:38.990Z,9.39
2019-05-16T09:17:39.093Z,9.31
2019-05-16T09:18:30.425Z,9.69
2019-05-16T09:18:41.083Z,9.20
2019-05-16T09:19:38.929Z,9.23
2019-05-16T09:20:42.713Z,9.22
2019-05-16T09:21:38.883Z,9.20
2019-05-16T09:22:38.886Z,9.09
2019-05-16T09:23:38.897Z,9.13
2019-05-16T09:24:38.887Z,9.15
2019-05-16T09:25:38.867Z,9.13
2019-05-16T09:26:38.894Z,9.12
2019-05-16T09:27:38.979Z,9.12
2019-05-16T09:28:39.270Z,9.11
2019-05-16T09:29:39.015Z,9.04
2019-05-16T09:30:38.944Z,9.02
2019-05-16T09:31:39.007Z,9.04
2019-05-16T09:32:42.592Z,9.07
2019-05-16T09:33:38.935Z,9.09
2019-05-16T09:34:39.011Z,9.07
2019-05-16T09:35:38.934Z,9.08
2019-05-16T09:36:39.014Z,9.12
2019-05-16T09:37:38.943Z,9.08
2019-05-16T09:38:39.012Z,9.02
2019-05-16T09:39:38.974Z,9.00
2019-05-16T09:40:39.038Z,8.89
2019-05-16T09:41:53.116Z,8.91
2019-05-16T09:42:39.007Z,8.91
2019-05-16T09:43:39.273Z,8.91
2019-05-16T09:44:39.010Z,8.86
2019-05-16T09:45:39.027Z,8.87
2019-05-16T09:46:39.016Z,8.80
2019-05-16T09:47:39.300Z,8.79
2019-05-16T09:48:39.020Z,8.79
2019-05-16T09:49:38.998Z,8.71
2019-05-16T09:50:38.995Z,8.74
2019-05-16T09:51:38.910Z,8.76
2019-05-16T09:52:38.881Z,8.82
2019-05-16T09:53:38.997Z,8.79
2019-05-16T09:54:38.976Z,8.76
2019-05-16T09:55:38.871Z,8.78
2019-05-16T09:56:38.965Z,8.69
2019-05-16T09:57:39.007Z,8.67
2019-05-16T09:58:38.952Z,8.72
2019-05-16T09:59:39.019Z,8.75
2019-05-16T10:00:39.029Z,8.72
2019-05-16T10:01:39.034Z,8.64
2019-05-16T10:02:39.024Z,8.64
2019-05-16T10:03:38.958Z,8.65
2019-05-16T10:04:39.033Z,8.68
2019-05-16T10:05:38.955Z,8.71
2019-05-16T10:06:39.034Z,8.71
2019-05-16T10:07:39.206Z,8.71
2019-05-16T10:08:38.968Z,8.68
2019-05-16T10:09:44.997Z,8.74
2019-05-16T10:10:38.961Z,8.75
2019-05-16T10:11:41.940Z,8.72
2019-05-16T10:12:38.961Z,8.75
2019-05-16T10:13:38.970Z,8.76
2019-05-16T10:14:38.965Z,8.72
2019-05-16T10:15:39.030Z,8.74
2019-05-16T10:16:38.966Z,8.71
2019-05-16T10:17:39.039Z,8.74
2019-05-16T10:18:38.992Z,8.74
2019-05-16T10:19:39.034Z,8.76
2019-05-16T10:20:39.037Z,8.80
2019-05-16T10:21:39.046Z,8.82
2019-05-16T10:22:38.970Z,8.85
2019-05-16T10:23:39.047Z,8.85
2019-05-16T10:24:39.044Z,8.83
2019-05-16T10:25:38.973Z,8.85
2019-05-16T10:26:39.036Z,8.87
2019-05-16T10:27:39.041Z,8.91
2019-05-16T10:28:38.970Z,8.87
2019-05-16T10:29:38.898Z,8.83
2019-05-16T10:30:38.992Z,8.82
2019-05-16T10:31:48.437Z,8.82
2019-05-16T10:32:39.861Z,8.79
2019-05-16T10:33:39.299Z,8.78
2019-05-16T10:34:39.100Z,8.80
2019-05-16T10:35:38.906Z,8.80
2019-05-16T10:36:38.967Z,8.79
2019-05-16T10:37:38.997Z,8.80
2019-05-16T10:38:38.923Z,8.87
2019-05-16T10:39:38.984Z,8.89
2019-05-16T10:40:39.051Z,8.89
2019-05-16T10:41:39.109Z,8.94
2019-05-16T10:42:39.054Z,9.01
2019-05-16T10:43:39.051Z,9.04
2019-05-16T10:44:39.102Z,8.98
2019-05-16T10:45:39.059Z,8.93
2019-05-16T10:46:39.053Z,8.91
2019-05-16T10:47:38.993Z,8.89
2019-05-16T10:48:39.058Z,8.87
2019-05-16T10:49:41.951Z,8.93
2019-05-16T10:50:39.119Z,8.91
2019-05-16T10:51:39.026Z,8.86
2019-05-16T10:52:38.993Z,8.80
2019-05-16T10:54:54.187Z,8.82
2019-05-16T10:55:39.125Z,8.82
2019-05-16T10:56:40.545Z,8.82
2019-05-16T10:57:39.119Z,8.80
2019-05-16T10:59:00.756Z,8.82
2019-05-16T11:00:06.786Z,8.75
2019-05-16T11:01:05.366Z,8.75
2019-05-16T11:01:38.981Z,8.75
2019-05-16T11:02:39.169Z,8.80
2019-05-16T11:03:39.084Z,8.78
2019-05-16T11:04:53.772Z,8.75
2019-05-16T11:05:39.738Z,8.72
2019-05-16T11:06:39.001Z,8.71
2019-05-16T11:07:39.053Z,8.69
2019-05-16T11:08:39.630Z,8.71
2019-05-16T11:09:39.437Z,8.74
2019-05-16T11:10:39.112Z,8.72
2019-05-16T11:11:39.053Z,8.69
2019-05-16T11:12:50.349Z,8.71
2019-05-16T11:13:39.068Z,8.69
2019-05-16T11:14:38.956Z,8.71
2019-05-16T11:15:38.971Z,8.71
2019-05-16T11:16:39.029Z,8.72
2019-05-16T11:17:39.102Z,8.74
2019-05-16T11:18:38.949Z,8.71
2019-05-16T11:19:39.043Z,8.74
2019-05-16T11:20:39.072Z,8.74
2019-05-16T11:21:39.081Z,8.79
2019-05-16T11:22:39.091Z,8.82
2019-05-16T11:23:39.015Z,8.85
2019-05-16T11:24:39.063Z,8.86
2019-05-16T11:25:39.014Z,8.86
2019-05-16T11:26:39.088Z,8.91
2019-05-16T11:27:39.019Z,8.94
2019-05-16T11:28:39.025Z,8.93
2019-05-16T11:29:39.025Z,8.94
2019-05-16T11:30:39.121Z,8.97
2019-05-16T11:31:39.078Z,8.97
2019-05-16T11:32:39.097Z,8.98
2019-05-16T11:33:39.024Z,8.96
2019-05-16T11:34:39.093Z,8.94
2019-05-16T11:35:39.096Z,8.91
2019-05-16T11:36:39.025Z,8.91
2019-05-16T11:37:39.109Z,8.91
2019-05-16T11:38:39.033Z,8.91
2019-05-16T11:39:39.093Z,8.87
2019-05-16T11:40:39.068Z,8.89
2019-05-16T11:41:39.029Z,8.87
2019-05-16T11:42:39.092Z,8.89
2019-05-16T11:43:39.033Z,8.91
2019-05-16T11:44:39.094Z,8.89
2019-05-16T11:45:39.030Z,8.91
2019-05-16T11:46:39.105Z,8.93
2019-05-16T11:47:39.031Z,8.93
2019-05-16T11:48:39.047Z,8.94
2019-05-16T11:49:39.093Z,8.96
2019-05-16T11:50:39.060Z,8.97
2019-05-16T11:51:39.031Z,8.93
2019-05-16T11:52:40.807Z,8.94
2019-05-16T11:53:39.068Z,8.91
2019-05-16T11:54:39.098Z,8.87
2019-05-16T11:55:54.042Z,8.86
2019-05-16T11:56:39.059Z,8.85
2019-05-16T11:57:39.032Z,8.87
2019-05-16T11:58:39.097Z,8.89
2019-05-16T11:59:39.051Z,8.90
2019-05-16T12:00:39.132Z,8.90
2019-05-16T12:01:39.044Z,8.93
2019-05-16T12:02:42.703Z,8.91
2019-05-16T12:03:39.050Z,8.89
2019-05-16T12:04:39.056Z,8.91
2019-05-16T12:05:39.047Z,8.90
2019-05-16T12:06:39.114Z,8.93
2019-05-16T12:07:44.178Z,8.93
2019-05-16T12:08:39.054Z,8.93
2019-05-16T12:09:46.848Z,8.94
2019-05-16T12:10:39.125Z,8.94
2019-05-16T12:11:39.056Z,8.94
2019-05-16T12:12:39.121Z,8.96
2019-05-16T12:13:39.050Z,8.94
2019-05-16T12:14:39.056Z,9.00
2019-05-16T12:15:39.127Z,9.02
2019-05-16T12:16:39.123Z,9.02
2019-05-16T12:17:39.055Z,8.97
2019-05-16T12:18:39.051Z,8.98
2019-05-16T12:19:43.889Z,8.96
2019-05-16T12:20:39.128Z,9.01
2019-05-16T12:21:39.060Z,9.01
2019-05-16T12:22:39.126Z,9.04
2019-05-16T12:23:39.058Z,9.05
2019-05-16T12:24:41.535Z,9.05
2019-05-16T12:25:39.138Z,9.09
2019-05-16T12:26:39.142Z,9.15
2019-05-16T12:27:42.155Z,9.18
2019-05-16T12:28:39.133Z,9.18
2019-05-16T12:29:39.063Z,9.19
2019-05-16T12:30:40.452Z,9.15
2019-05-16T12:31:54.109Z,9.13
2019-05-16T12:32:39.065Z,9.11
2019-05-16T12:33:39.065Z,9.08
2019-05-16T12:34:39.063Z,9.07
2019-05-16T12:35:39.142Z,9.01
2019-05-16T12:36:39.135Z,8.97
2019-05-16T12:37:39.073Z,8.98
2019-05-16T12:38:39.069Z,8.97
2019-05-16T12:39:39.138Z,8.94
2019-05-16T12:40:39.077Z,8.89
2019-05-16T12:41:40.951Z,8.89
2019-05-16T12:42:39.129Z,8.87
2019-05-16T12:43:48.738Z,8.87
2019-05-16T12:44:39.143Z,8.87
2019-05-16T12:45:39.144Z,8.87
2019-05-16T12:46:39.140Z,8.87
2019-05-16T12:47:39.149Z,8.87
2019-05-16T12:48:39.195Z,8.86
2019-05-16T12:49:39.025Z,8.82
2019-05-16T12:50:39.239Z,8.76
2019-05-16T12:51:39.062Z,8.79
2019-05-16T12:52:39.065Z,8.72
2019-05-16T12:53:39.048Z,8.71
2019-05-16T12:54:39.077Z,8.72
2019-05-16T12:55:39.111Z,8.76
2019-05-16T12:56:39.073Z,8.75
2019-05-16T12:57:39.087Z,8.75
2019-05-16T12:58:42.134Z,8.72
2019-05-16T12:59:42.278Z,8.72
2019-05-16T13:00:44.195Z,8.72
2019-05-16T13:01:39.087Z,8.74
2019-05-16T13:02:39.114Z,8.67
2019-05-16T13:03:39.025Z,8.67
2019-05-16T13:04:39.146Z,8.67
2019-05-16T13:05:39.049Z,8.69
2019-05-16T13:06:39.095Z,8.65
2019-05-16T13:07:39.107Z,8.65
2019-05-16T13:08:39.018Z,8.65
2019-05-16T13:09:39.179Z,8.69
2019-05-16T13:10:39.209Z,8.67
2019-05-16T13:11:39.091Z,8.64
2019-05-16T13:12:39.173Z,8.67
2019-05-16T13:13:39.162Z,8.68
2019-05-16T13:14:40.415Z,8.67
2019-05-16T13:15:42.102Z,8.61
2019-05-16T13:16:39.131Z,8.61
2019-05-16T13:17:39.169Z,8.61
2019-05-16T13:18:39.195Z,8.57